Time;durP1;ratioP1;P1;durP2;ratioP2;P2;SDS_P1;SDS_P2;PMS_P1;PMS_P2;Temp;Humidity;BMP_temperature;BMP_pressure;BME280_temperature;BME280_humidity;BME280_pressure;Samples;Min_cycle;Max_cycle;Signal;HPM_P1;HPM_P2
2022/07/21 00:00:27;;;;;;;8.27;7.40;;;22.30;99.90;;;;;;7344331;19;108369;-72
2022/07/21 00:02:56;;;;;;;8.98;7.10;;;22.30;99.90;;;;;;7340040;19;108208;-74
2022/07/21 00:05:24;;;;;;;9.98;7.10;;;22.30;99.90;;;;;;7349217;19;109600;-72
2022/07/21 00:07:52;;;;;;;10.48;7.43;;;22.30;99.90;;;;;;7339461;19;108109;-72
2022/07/21 00:10:21;;;;;;;10.68;8.25;;;22.30;99.90;;;;;;7342606;19;108730;-73
2022/07/21 00:12:49;;;;;;;9.60;7.28;;;22.30;99.90;;;;;;7340321;19;108238;-73
2022/07/21 00:15:18;;;;;;;9.07;7.47;;;22.30;99.90;;;;;;7343266;19;107446;-73
2022/07/21 00:17:45;;;;;;;9.10;7.55;;;22.30;99.90;;;;;;7342667;19;110145;-72
2022/07/21 00:20:14;;;;;;;8.48;7.60;;;22.20;99.90;;;;;;7342972;19;107541;-72
2022/07/21 00:22:41;;;;;;;8.35;7.07;;;22.20;99.90;;;;;;7341929;19;108675;-73
2022/07/21 00:25:11;;;;;;;9.30;7.40;;;22.20;99.90;;;;;;7341211;19;108834;-72
2022/07/21 00:27:38;;;;;;;8.98;8.13;;;22.10;99.90;;;;;;7346175;19;108766;-73
2022/07/21 00:30:08;;;;;;;9.65;8.65;;;22.00;99.90;;;;;;7343177;19;109148;-72
2022/07/21 00:32:36;;;;;;;14.40;8.23;;;22.00;99.90;;;;;;7342129;19;107116;-72
2022/07/21 00:35:05;;;;;;;9.70;8.18;;;22.00;99.90;;;;;;7339278;19;108222;-72
2022/07/21 00:37:32;;;;;;;9.23;8.32;;;22.00;99.90;;;;;;7340872;19;108837;-72
2022/07/21 00:40:00;;;;;;;9.85;8.38;;;22.00;99.90;;;;;;7342141;19;107992;-72
2022/07/21 00:42:31;;;;;;;10.35;8.82;;;22.00;99.90;;;;;;7341434;19;107709;-72
2022/07/21 00:44:59;;;;;;;9.20;8.10;;;22.00;99.90;;;;;;7341547;19;108909;-72
2022/07/21 00:47:29;;;;;;;10.15;8.48;;;22.00;99.90;;;;;;7341035;19;108000;-72
2022/07/21 00:49:58;;;;;;;10.73;8.52;;;22.00;99.90;;;;;;7346954;19;108272;-72
2022/07/21 00:52:25;;;;;;;9.55;8.32;;;22.00;99.90;;;;;;7339472;19;108775;-72
2022/07/21 00:54:52;;;;;;;11.50;8.98;;;22.00;99.90;;;;;;7342258;19;107317;-72
2022/07/21 00:57:20;;;;;;;10.05;9.00;;;21.90;99.90;;;;;;7338905;19;111964;-72
2022/07/21 00:59:47;;;;;;;11.60;8.70;;;21.90;99.90;;;;;;7340111;19;107966;-72
2022/07/21 01:02:15;;;;;;;9.90;8.90;;;21.80;99.90;;;;;;7339160;19;109907;-72
2022/07/21 01:04:42;;;;;;;10.05;9.00;;;21.90;99.90;;;;;;7340736;19;107912;-72
2022/07/21 01:07:09;;;;;;;10.15;8.48;;;21.90;99.90;;;;;;7339357;19;107067;-72
2022/07/21 01:09:36;;;;;;;9.55;8.63;;;21.90;99.90;;;;;;7341729;19;110918;-72
2022/07/21 01:12:04;;;;;;;9.95;8.80;;;21.80;99.90;;;;;;7344473;19;111187;-72
2022/07/21 01:14:33;;;;;;;10.80;9.65;;;21.90;99.90;;;;;;7338203;19;108318;-72
2022/07/21 01:17:02;;;;;;;10.13;9.13;;;21.90;99.90;;;;;;7340476;19;107972;-72
2022/07/21 01:19:29;;;;;;;10.52;8.80;;;21.90;99.90;;;;;;7339106;19;107292;-72
2022/07/21 01:21:56;;;;;;;15.40;9.30;;;21.90;99.90;;;;;;7340673;19;107693;-72
2022/07/21 01:24:23;;;;;;;12.13;8.75;;;21.90;99.90;;;;;;7338228;19;112884;-72
2022/07/21 01:26:52;;;;;;;16.40;9.35;;;21.90;99.90;;;;;;7340462;19;108409;-73
2022/07/21 01:29:20;;;;;;;11.57;9.20;;;21.90;99.90;;;;;;7340701;19;108387;-72
2022/07/21 01:31:49;;;;;;;11.15;9.65;;;21.90;99.90;;;;;;7340606;19;108205;-73
2022/07/21 01:34:17;;;;;;;12.18;9.27;;;21.90;99.90;;;;;;7345302;19;107490;-72
2022/07/21 01:36:45;;;;;;;13.30;9.23;;;21.90;99.90;;;;;;7337653;19;109260;-72
2022/07/21 01:41:58;;;;;;;10.45;9.45;;;21.90;99.90;;;;;;7340234;19;108390;-72
2022/07/21 01:44:25;;;;;;;11.65;9.57;;;21.90;99.90;;;;;;7338029;19;108758;-72
2022/07/21 01:46:53;;;;;;;12.00;9.10;;;21.90;99.90;;;;;;7339266;19;107917;-72
2022/07/21 01:49:21;;;;;;;12.15;8.93;;;21.90;99.90;;;;;;7336820;19;108077;-73
2022/07/21 01:51:49;;;;;;;12.15;9.85;;;21.90;99.90;;;;;;7339684;19;108218;-73
2022/07/21 01:54:17;;;;;;;11.65;9.63;;;21.90;99.90;;;;;;7344309;19;107869;-73
2022/07/21 01:56:49;;;;;;;13.18;9.52;;;21.90;99.90;;;;;;7339715;19;108843;-73
2022/07/21 01:59:16;;;;;;;10.77;9.43;;;21.90;99.90;;;;;;7338859;19;107884;-72
2022/07/21 02:01:44;;;;;;;13.40;9.82;;;21.90;99.90;;;;;;7339560;19;108562;-73
2022/07/21 02:04:11;;;;;;;10.20;9.07;;;21.90;99.90;;;;;;7333725;19;108989;-73
2022/07/21 02:06:38;;;;;;;11.15;9.32;;;21.90;99.90;;;;;;7339416;19;107554;-72
2022/07/21 02:09:06;;;;;;;13.63;9.23;;;21.80;99.90;;;;;;7336151;19;108756;-73
2022/07/21 02:11:34;;;;;;;10.38;9.30;;;21.80;99.90;;;;;;7333473;19;112328;-73
2022/07/21 02:14:01;;;;;;;10.38;9.32;;;21.80;99.90;;;;;;7336964;19;108319;-73
2022/07/21 02:16:28;;;;;;;10.75;9.48;;;21.80;99.90;;;;;;7342113;19;108081;-73
2022/07/21 02:18:56;;;;;;;10.90;9.10;;;21.80;99.90;;;;;;7337938;19;108485;-72
2022/07/21 02:21:23;;;;;;;12.63;9.25;;;21.80;99.90;;;;;;7336472;19;108733;-72
2022/07/21 02:23:50;;;;;;;12.45;9.00;;;21.80;99.90;;;;;;7335035;19;109116;-72
2022/07/21 02:26:18;;;;;;;9.45;8.50;;;21.80;99.90;;;;;;7339913;19;107577;-73
2022/07/21 02:28:45;;;;;;;10.45;8.70;;;21.80;99.90;;;;;;7334602;19;107945;-72
2022/07/21 02:31:12;;;;;;;9.05;8.25;;;21.70;99.90;;;;;;7338202;19;107909;-72
2022/07/21 02:33:39;;;;;;;9.98;8.95;;;21.70;99.90;;;;;;7338205;19;107236;-73
2022/07/21 02:36:07;;;;;;;11.65;8.35;;;21.70;99.90;;;;;;7337866;19;107671;-72
2022/07/21 02:38:34;;;;;;;10.32;8.43;;;21.70;99.90;;;;;;7343741;19;108239;-72
2022/07/21 02:41:01;;;;;;;9.20;7.60;;;21.70;99.90;;;;;;7337431;19;107546;-72
2022/07/21 02:43:28;;;;;;;9.38;7.70;;;21.60;99.90;;;;;;7335584;19;108377;-72
2022/07/21 02:45:55;;;;;;;9.23;7.57;;;21.60;99.90;;;;;;7337558;19;107352;-72
2022/07/21 02:48:22;;;;;;;13.50;7.82;;;21.50;99.90;;;;;;7335845;19;108515;-72
2022/07/21 02:50:49;;;;;;;9.93;7.22;;;21.50;99.90;;;;;;7339505;19;109146;-72
2022/07/21 02:53:19;;;;;;;11.70;6.68;;;21.50;99.90;;;;;;7337468;19;107402;-72
2022/07/21 02:55:47;;;;;;;9.93;6.78;;;21.40;99.90;;;;;;7336308;19;108497;-73
2022/07/21 02:58:17;;;;;;;13.18;7.22;;;21.40;99.90;;;;;;7338494;19;109220;-72
2022/07/21 03:00:55;;;;;;;10.10;6.60;;;21.30;99.90;;;;;;7341099;19;107292;-72
2022/07/21 03:03:26;;;;;;;14.50;6.55;;;21.30;99.90;;;;;;7337806;19;107770;-72
2022/07/21 03:05:54;;;;;;;11.60;7.13;;;21.30;99.90;;;;;;7336174;19;107081;-73
2022/07/21 03:08:21;;;;;;;8.68;7.70;;;21.20;99.90;;;;;;7337367;19;107127;-72
2022/07/21 03:10:49;;;;;;;9.95;8.85;;;21.10;99.90;;;;;;7335700;19;109107;-73
2022/07/21 03:13:16;;;;;;;13.90;9.85;;;21.00;99.90;;;;;;7334772;19;108271;-72
2022/07/21 03:15:43;;;;;;;15.57;8.38;;;20.80;99.90;;;;;;7337373;19;109068;-72
2022/07/21 03:18:10;;;;;;;10.75;7.97;;;20.70;99.90;;;;;;7342216;19;107844;-72
2022/07/21 03:20:39;;;;;;;15.40;7.95;;;20.70;99.90;;;;;;7344699;19;108585;-72
2022/07/21 03:23:07;;;;;;;11.50;8.43;;;20.80;99.90;;;;;;7347533;19;108067;-73
2022/07/21 03:25:34;;;;;;;9.60;8.50;;;20.90;99.90;;;;;;7344663;19;107996;-73
2022/07/21 03:28:02;;;;;;;11.95;8.82;;;20.90;99.90;;;;;;7342852;19;107533;-73
2022/07/21 03:30:29;;;;;;;10.77;8.27;;;20.90;99.90;;;;;;7342561;19;110297;-72
2022/07/21 03:32:57;;;;;;;12.65;8.20;;;20.90;99.90;;;;;;7343571;19;111911;-73
2022/07/21 03:35:25;;;;;;;9.30;8.32;;;20.90;99.90;;;;;;7342893;19;108190;-72
2022/07/21 03:37:55;;;;;;;11.50;8.25;;;21.00;99.90;;;;;;7343907;19;109280;-72
2022/07/21 03:40:24;;;;;;;13.43;8.05;;;21.00;99.90;;;;;;7343417;19;107877;-72
2022/07/21 03:42:57;;;;;;;13.00;8.15;;;21.00;99.90;;;;;;7349665;19;108554;-72
2022/07/21 03:45:25;;;;;;;13.73;8.00;;;21.00;99.90;;;;;;7342816;19;107679;-72
2022/07/21 03:47:52;;;;;;;12.98;8.13;;;21.00;99.90;;;;;;7342406;19;108380;-72
2022/07/21 03:50:20;;;;;;;11.18;8.00;;;21.00;99.90;;;;;;7340562;19;107874;-72
2022/07/21 03:52:47;;;;;;;10.02;7.68;;;21.00;99.90;;;;;;7342826;19;108122;-72
2022/07/21 03:55:18;;;;;;;10.55;8.40;;;21.00;99.90;;;;;;7343462;19;107612;-72
2022/07/21 03:57:48;;;;;;;10.20;7.50;;;21.00;99.90;;;;;;7342495;19;107425;-72
2022/07/21 04:00:25;;;;;;;11.60;8.30;;;21.00;99.90;;;;;;7341358;19;108414;-73
2022/07/21 04:02:53;;;;;;;;;;;21.00;99.90;;;;;;7343099;19;108233;-72
2022/07/21 04:05:20;;;;;;;13.82;8.50;;;21.00;99.90;;;;;;7352563;19;108892;-72
2022/07/21 04:07:49;;;;;;;12.05;8.07;;;21.00;99.90;;;;;;7342891;19;108392;-72
2022/07/21 04:10:27;;;;;;;11.40;7.88;;;21.00;99.90;;;;;;7336783;19;108278;-72
2022/07/21 04:12:57;;;;;;;13.27;7.70;;;21.00;99.90;;;;;;7340995;19;110864;-72
2022/07/21 04:15:24;;;;;;;10.20;8.23;;;21.10;99.90;;;;;;7342674;19;107946;-73
2022/07/21 04:17:52;;;;;;;10.18;7.85;;;21.10;99.90;;;;;;7342730;19;108921;-72
2022/07/21 04:20:21;;;;;;;14.55;7.90;;;21.00;99.90;;;;;;7342289;19;107917;-73
2022/07/21 04:22:49;;;;;;;12.57;7.32;;;21.00;99.90;;;;;;7341072;19;108342;-72
2022/07/21 04:25:18;;;;;;;9.70;7.65;;;21.10;99.90;;;;;;7340359;19;108609;-72
2022/07/21 04:27:46;;;;;;;13.38;7.47;;;21.10;99.90;;;;;;7345963;19;107956;-72
2022/07/21 04:30:16;;;;;;;10.32;7.10;;;21.10;99.90;;;;;;7338426;19;108114;-72
2022/07/21 04:32:44;;;;;;;12.05;7.57;;;21.10;99.90;;;;;;7343063;19;108028;-72
2022/07/21 04:35:12;;;;;;;10.27;7.50;;;21.10;99.90;;;;;;7341784;19;110352;-72
2022/07/21 04:37:39;;;;;;;10.10;7.80;;;21.10;99.90;;;;;;7341951;19;109079;-72
2022/07/21 04:40:09;;;;;;;13.45;7.68;;;21.10;99.90;;;;;;7341832;19;107523;-72
2022/07/21 04:42:36;;;;;;;11.80;7.63;;;21.10;99.90;;;;;;7341967;19;108242;-72
2022/07/21 04:45:05;;;;;;;11.45;7.53;;;21.10;99.90;;;;;;7341610;19;107867;-72
2022/07/21 04:47:32;;;;;;;14.13;7.22;;;21.10;99.90;;;;;;7342217;19;107886;-72
2022/07/21 04:49:59;;;;;;;10.85;7.13;;;21.10;99.90;;;;;;7346893;19;108147;-72
2022/07/21 04:52:26;;;;;;;13.45;6.82;;;21.20;99.90;;;;;;7341501;19;108159;-72
2022/07/21 04:54:53;;;;;;;13.60;7.78;;;21.20;99.90;;;;;;7342454;19;108134;-72
2022/07/21 04:57:20;;;;;;;13.20;7.07;;;21.20;99.90;;;;;;7341077;19;108304;-72
2022/07/21 04:59:47;;;;;;;11.00;6.93;;;21.20;99.90;;;;;;7341997;19;110744;-72
2022/07/21 05:02:14;;;;;;;11.90;7.95;;;21.20;99.90;;;;;;7341815;19;108182;-70
2022/07/21 05:04:41;;;;;;;14.73;8.02;;;21.20;99.90;;;;;;7339784;19;109739;-70
2022/07/21 05:07:08;;;;;;;14.60;8.35;;;21.20;99.90;;;;;;7340468;19;106987;-70
2022/07/21 05:09:35;;;;;;;13.45;8.52;;;21.20;99.90;;;;;;7338038;19;108482;-70
2022/07/21 05:12:03;;;;;;;14.07;8.65;;;21.20;99.90;;;;;;7345399;19;108950;-70
2022/07/21 05:14:30;;;;;;;13.10;8.43;;;21.20;99.90;;;;;;7341343;19;108160;-70
2022/07/21 05:16:57;;;;;;;12.48;8.63;;;21.20;99.90;;;;;;7339475;19;109286;-70
2022/07/21 05:19:24;;;;;;;13.57;10.20;;;21.20;99.90;;;;;;7339068;19;107941;-70
2022/07/21 05:21:51;;;;;;;16.52;10.50;;;21.20;99.90;;;;;;7336491;19;111819;-70
2022/07/21 05:24:18;;;;;;;20.80;10.27;;;21.30;99.90;;;;;;7335287;19;110122;-70
2022/07/21 05:26:45;;;;;;;15.73;9.60;;;21.20;99.90;;;;;;7337039;19;111056;-69
2022/07/21 05:29:12;;;;;;;16.88;10.68;;;21.20;99.90;;;;;;7337718;19;108482;-70
2022/07/21 05:31:39;;;;;;;16.85;10.50;;;21.30;99.90;;;;;;7337454;19;111012;-69
2022/07/21 05:34:06;;;;;;;16.48;11.45;;;21.20;99.90;;;;;;7341929;19;111371;-69
2022/07/21 05:36:33;;;;;;;24.60;11.73;;;21.30;99.90;;;;;;7336495;19;110993;-69
2022/07/21 05:39:00;;;;;;;24.15;12.70;;;21.30;99.90;;;;;;7335718;19;111505;-69
2022/07/21 05:41:27;;;;;;;22.73;13.07;;;21.40;99.90;;;;;;7337137;19;113738;-69
2022/07/21 05:43:54;;;;;;;22.40;13.00;;;21.40;99.90;;;;;;7331934;19;112443;-69
2022/07/21 05:46:21;;;;;;;19.10;13.52;;;21.50;99.90;;;;;;7333031;19;110535;-69
2022/07/21 05:48:48;;;;;;;23.45;14.15;;;21.50;99.90;;;;;;7335818;19;111755;-70
2022/07/21 05:51:16;;;;;;;20.20;12.82;;;21.50;99.90;;;;;;7334576;19;116744;-70
2022/07/21 05:53:45;;;;;;;26.17;14.50;;;21.50;99.90;;;;;;7341001;19;111060;-70
2022/07/21 05:56:12;;;;;;;20.95;14.27;;;21.50;99.90;;;;;;7337589;19;110211;-69
2022/07/21 05:58:39;;;;;;;25.65;13.73;;;21.50;99.90;;;;;;7334443;19;111426;-70
2022/07/21 06:01:09;;;;;;;24.52;15.20;;;21.50;99.90;;;;;;7337764;19;111672;-70
2022/07/21 06:03:45;;;;;;;27.05;15.10;;;21.50;99.90;;;;;;7336884;19;109899;-69
2022/07/21 06:06:15;;;;;;;36.70;18.90;;;21.50;99.90;;;;;;7337082;19;111540;-69
2022/07/21 06:08:44;;;;;;;35.40;16.95;;;21.50;99.90;;;;;;7336821;19;110561;-69
2022/07/21 06:11:14;;;;;;;29.27;15.35;;;21.40;99.90;;;;;;7336082;19;111333;-71
2022/07/21 06:13:41;;;;;;;28.63;15.88;;;21.40;99.90;;;;;;7335865;19;110866;-70
2022/07/21 06:16:10;;;;;;;23.33;16.00;;;21.40;99.90;;;;;;7339607;19;111797;-70
2022/07/21 06:18:37;;;;;;;23.60;15.55;;;21.30;99.90;;;;;;7336869;19;112879;-70
2022/07/21 06:21:04;;;;;;;26.60;15.52;;;21.30;99.90;;;;;;7335387;19;110996;-71
2022/07/21 06:23:32;;;;;;;23.92;16.10;;;21.30;99.90;;;;;;7331932;19;111374;-71
2022/07/21 06:25:59;;;;;;;25.98;17.00;;;21.20;99.90;;;;;;7333802;19;110352;-71
2022/07/21 06:28:26;;;;;;;29.00;17.17;;;21.20;99.90;;;;;;7336813;19;111734;-71
2022/07/21 06:30:54;;;;;;;28.75;17.15;;;21.20;99.90;;;;;;7335073;19;110084;-71
2022/07/21 06:33:22;;;;;;;29.10;17.80;;;21.20;99.90;;;;;;7333498;19;111375;-70
2022/07/21 06:35:49;;;;;;;27.40;17.05;;;21.20;99.90;;;;;;7335445;19;111602;-71
2022/07/21 06:38:16;;;;;;;23.77;16.23;;;21.20;99.90;;;;;;7342504;19;110534;-71
2022/07/21 06:40:43;;;;;;;26.60;17.38;;;21.20;99.90;;;;;;7335203;19;111736;-71
2022/07/21 06:43:12;;;;;;;26.48;15.82;;;21.20;99.90;;;;;;7336454;19;110064;-71
2022/07/21 06:45:54;;;;;;;25.65;16.30;;;21.20;99.90;;;;;;7336680;19;111727;-71
2022/07/21 06:48:24;;;;;;;24.67;16.13;;;21.20;99.90;;;;;;7330699;19;111990;-71
2022/07/21 06:50:53;;;;;;;29.52;16.55;;;21.20;99.90;;;;;;7334210;19;111451;-71
2022/07/21 06:53:20;;;;;;;23.27;16.20;;;21.10;99.90;;;;;;7342141;19;111510;-71
2022/07/21 06:55:52;;;;;;;27.63;15.55;;;21.10;99.90;;;;;;7342265;19;111098;-71
2022/07/21 06:58:28;;;;;;;18.60;13.80;;;21.10;99.90;;;;;;7340982;19;111260;-71
2022/07/21 07:01:02;;;;;;;25.17;15.65;;;21.00;99.90;;;;;;7348360;19;112299;-71
2022/07/21 07:03:29;;;;;;;18.92;15.05;;;21.00;99.90;;;;;;7342480;19;111415;-71
2022/07/21 07:05:56;;;;;;;22.67;14.98;;;21.00;99.90;;;;;;7338464;19;111344;-71
2022/07/21 07:08:24;;;;;;;26.00;15.98;;;21.00;99.90;;;;;;7342218;19;110825;-71
2022/07/21 07:10:50;;;;;;;18.48;14.70;;;21.00;99.90;;;;;;7339472;19;110108;-71
2022/07/21 07:13:17;;;;;;;16.52;13.70;;;21.00;99.90;;;;;;7339359;19;111134;-71
2022/07/21 07:16:05;;;;;;;20.47;14.10;;;21.00;99.90;;;;;;7338087;19;113154;-71
2022/07/21 07:18:32;;;;;;;22.38;15.38;;;21.00;99.90;;;;;;7341354;19;110887;-71
2022/07/21 07:21:00;;;;;;;18.73;13.48;;;21.00;99.90;;;;;;7337330;19;112545;-71
2022/07/21 07:23:34;;;;;;;18.55;14.90;;;21.00;99.90;;;;;;7344136;19;111094;-71
2022/07/21 07:26:01;;;;;;;16.70;13.27;;;21.00;99.90;;;;;;7340329;19;111455;-71
2022/07/21 07:28:28;;;;;;;21.05;14.32;;;21.00;99.90;;;;;;7338653;19;112201;-71
2022/07/21 07:30:55;;;;;;;21.13;13.32;;;21.00;99.90;;;;;;7338237;19;111076;-71
2022/07/21 07:33:24;;;;;;;15.93;12.38;;;21.00;99.90;;;;;;7339587;19;111467;-71
2022/07/21 07:35:52;;;;;;;16.80;12.75;;;20.90;99.90;;;;;;7340811;19;110729;-72
2022/07/21 07:38:19;;;;;;;14.30;12.18;;;21.00;99.90;;;;;;7341819;19;110551;-71
2022/07/21 07:40:46;;;;;;;16.70;12.27;;;21.00;99.90;;;;;;7341726;19;112724;-71
2022/07/21 07:43:13;;;;;;;15.88;12.70;;;21.00;99.90;;;;;;7338896;19;110842;-71
2022/07/21 07:45:40;;;;;;;13.93;11.00;;;21.00;99.90;;;;;;7344728;19;110425;-71
2022/07/21 07:48:08;;;;;;;12.30;11.02;;;20.90;99.90;;;;;;7338988;19;112698;-71
2022/07/21 07:50:35;;;;;;;12.35;11.13;;;21.00;99.90;;;;;;7336750;19;110428;-71
2022/07/21 07:53:02;;;;;;;11.40;10.23;;;20.90;99.90;;;;;;7340187;19;112036;-71
2022/07/21 07:55:29;;;;;;;12.73;11.48;;;20.90;99.90;;;;;;7336644;19;110799;-71
2022/07/21 07:57:56;;;;;;;11.05;9.95;;;20.90;99.90;;;;;;7338572;19;110570;-71
2022/07/21 08:00:23;;;;;;;9.90;9.02;;;20.90;99.90;;;;;;7342729;19;111251;-71
2022/07/21 08:03:10;;;;;;;9.98;8.95;;;20.90;99.90;;;;;;7339930;19;109419;-71
2022/07/21 08:05:37;;;;;;;9.45;8.52;;;20.80;99.90;;;;;;7349099;19;108908;-71
2022/07/21 08:08:05;;;;;;;11.48;9.25;;;20.90;99.90;;;;;;7343313;19;108480;-71
2022/07/21 08:10:32;;;;;;;10.45;9.27;;;20.90;99.90;;;;;;7341620;19;109105;-71
2022/07/21 08:13:11;;;;;;;9.55;8.43;;;20.90;99.90;;;;;;7344196;19;108031;-71
2022/07/21 08:15:38;;;;;;;10.02;8.10;;;20.80;99.90;;;;;;7340139;19;111006;-71
2022/07/21 08:18:06;;;;;;;11.02;8.77;;;20.90;99.90;;;;;;7342617;19;108847;-71
2022/07/21 08:20:35;;;;;;;8.88;8.05;;;20.90;99.90;;;;;;7342514;19;107974;-71
2022/07/21 08:23:03;;;;;;;9.20;8.32;;;20.90;99.90;;;;;;7342863;19;108167;-71
2022/07/21 08:25:30;;;;;;;10.02;9.02;;;20.90;99.90;;;;;;7341475;19;109103;-71
2022/07/21 08:27:57;;;;;;;11.57;9.77;;;20.90;99.90;;;;;;7347173;19;107612;-71
2022/07/21 08:30:24;;;;;;;11.00;9.90;;;20.90;99.90;;;;;;7341238;19;107522;-71
2022/07/21 08:32:57;;;;;;;10.10;9.13;;;20.90;99.90;;;;;;7339970;19;107597;-71
2022/07/21 08:35:25;;;;;;;11.15;10.05;;;20.90;99.90;;;;;;7339491;19;108493;-71
2022/07/21 08:37:55;;;;;;;13.15;11.48;;;20.90;99.90;;;;;;7337535;19;111022;-71
2022/07/21 08:40:24;;;;;;;13.52;11.88;;;21.00;99.90;;;;;;7339206;19;111294;-71
2022/07/21 08:42:53;;;;;;;14.70;12.45;;;20.90;99.90;;;;;;7339659;19;111094;-71
2022/07/21 08:45:22;;;;;;;14.40;12.93;;;20.90;99.90;;;;;;7336795;19;111886;-71
2022/07/21 08:47:52;;;;;;;16.00;12.93;;;20.90;99.90;;;;;;7338392;19;111426;-72
2022/07/21 08:50:22;;;;;;;13.93;12.57;;;20.90;99.90;;;;;;7342904;19;112104;-71
2022/07/21 08:52:49;;;;;;;12.90;11.48;;;21.00;99.90;;;;;;7337632;19;111788;-71
2022/07/21 08:55:27;;;;;;;14.75;12.40;;;21.00;99.90;;;;;;7335824;19;114554;-71
2022/07/21 08:57:54;;;;;;;14.23;12.35;;;21.00;99.90;;;;;;7337953;19;110901;-71
2022/07/21 09:00:22;;;;;;;12.82;11.25;;;21.00;99.90;;;;;;7338005;19;110376;-71
2022/07/21 09:02:49;;;;;;;13.63;12.27;;;21.00;99.90;;;;;;7338613;19;111783;-71
2022/07/21 09:05:16;;;;;;;13.98;11.73;;;21.00;99.90;;;;;;7338223;19;111967;-71
2022/07/21 09:07:57;;;;;;;14.35;11.48;;;21.00;99.90;;;;;;7336964;19;111495;-71
2022/07/21 09:10:28;;;;;;;14.25;12.75;;;21.00;99.90;;;;;;7337250;19;111817;-71
2022/07/21 09:13:05;;;;;;;15.52;13.40;;;21.00;99.90;;;;;;7339658;19;110320;-71
2022/07/21 09:15:33;;;;;;;15.82;13.00;;;21.00;99.90;;;;;;7337553;19;110728;-71
2022/07/21 09:18:15;;;;;;;19.90;15.20;;;21.00;99.90;;;;;;7335976;19;110234;-71
2022/07/21 09:20:48;;;;;;;16.73;13.32;;;21.10;99.90;;;;;;7337201;19;112021;-71
2022/07/21 09:23:17;;;;;;;18.17;13.20;;;21.00;99.90;;;;;;7336644;19;111774;-71
2022/07/21 09:25:53;;;;;;;17.95;13.25;;;21.00;99.90;;;;;;7334793;19;110252;-71
2022/07/21 09:28:23;;;;;;;16.42;13.23;;;21.00;99.90;;;;;;7337403;19;110687;-71
2022/07/21 09:31:03;;;;;;;16.67;12.95;;;21.00;99.90;;;;;;7335778;19;110738;-71
2022/07/21 09:33:43;;;;;;;13.05;11.75;;;20.90;99.90;;;;;;7338858;19;110290;-71
2022/07/21 09:36:11;;;;;;;15.05;11.40;;;20.90;99.90;;;;;;7341745;19;110353;-71
2022/07/21 09:38:38;;;;;;;14.25;11.93;;;20.80;99.90;;;;;;7338231;19;110698;-71
2022/07/21 09:41:17;;;;;;;18.60;13.23;;;20.90;99.90;;;;;;7338105;19;112608;-71
2022/07/21 09:43:47;;;;;;;17.45;11.75;;;20.90;99.90;;;;;;7336960;19;111461;-71
2022/07/21 09:46:26;;;;;;;15.35;11.70;;;20.90;99.90;;;;;;7338199;19;109975;-71
2022/07/21 09:48:56;;;;;;;14.10;11.45;;;20.80;99.90;;;;;;7336919;19;110732;-71
2022/07/21 09:51:43;;;;;;;17.08;11.93;;;20.80;99.90;;;;;;7334734;19;112325;-71
2022/07/21 09:54:13;;;;;;;19.67;12.40;;;20.80;99.90;;;;;;7336172;19;109974;-71
2022/07/21 09:56:42;;;;;;;15.13;10.98;;;20.70;99.90;;;;;;7337030;19;111579;-71
2022/07/21 09:59:11;;;;;;;14.88;10.80;;;20.80;99.90;;;;;;7342732;19;112699;-71
2022/07/21 10:01:39;;;;;;;16.77;10.68;;;20.80;99.90;;;;;;7337438;19;111576;-71
2022/07/21 10:04:07;;;;;;;10.77;9.02;;;20.90;99.90;;;;;;7336713;19;110845;-71
2022/07/21 10:06:38;;;;;;;11.45;10.02;;;20.80;99.90;;;;;;7340566;19;109064;-71
2022/07/21 10:09:08;;;;;;;12.45;9.85;;;20.90;99.90;;;;;;7337598;19;110517;-71
2022/07/21 10:11:41;;;;;;;14.80;9.23;;;20.90;99.90;;;;;;7338988;19;110859;-71
2022/07/21 10:14:11;;;;;;;16.42;9.02;;;20.80;99.90;;;;;;7340578;19;107845;-70
2022/07/21 10:16:38;;;;;;;12.85;9.57;;;20.80;99.90;;;;;;7338192;19;107937;-71
2022/07/21 10:19:41;;;;;;;9.63;8.05;;;20.80;99.90;;;;;;7345001;19;107176;-71
2022/07/21 10:22:31;;;;;;;14.85;8.95;;;20.90;99.90;;;;;;7339929;19;107484;-71
2022/07/21 10:24:59;;;;;;;15.38;9.50;;;20.90;99.90;;;;;;7339742;19;108556;-71
2022/07/21 10:27:26;;;;;;;13.82;9.80;;;20.90;99.90;;;;;;7346353;19;108150;-71
2022/07/21 10:30:14;;;;;;;12.13;10.47;;;21.00;99.90;;;;;;7344951;19;109313;-71
2022/07/21 10:32:49;;;;;;;15.18;9.90;;;21.10;99.90;;;;;;7340476;19;111770;-70
2022/07/21 10:35:30;;;;;;;14.90;9.85;;;21.20;99.90;;;;;;7345553;19;108915;-71
2022/07/21 10:38:02;;;;;;;14.70;9.57;;;21.20;99.90;;;;;;7343719;19;107920;-71
2022/07/21 10:40:29;;;;;;;17.13;9.25;;;21.30;99.90;;;;;;7342764;19;108199;-71
2022/07/21 10:42:59;;;;;;;14.00;9.00;;;21.30;99.90;;;;;;7350790;19;108854;-71
2022/07/21 10:45:30;;;;;;;18.77;9.70;;;21.20;99.90;;;;;;7345498;19;107269;-71
2022/07/21 10:47:58;;;;;;;18.63;8.73;;;21.20;99.90;;;;;;7345719;19;109262;-71
2022/07/21 10:50:40;;;;;;;13.38;7.88;;;21.20;99.90;;;;;;7343431;19;109637;-71
2022/07/21 10:53:16;;;;;;;13.43;7.75;;;21.30;99.90;;;;;;7346384;19;107195;-70
2022/07/21 10:55:54;;;;;;;14.73;7.45;;;21.30;99.90;;;;;;7345751;19;107884;-71
2022/07/21 10:58:41;;;;;;;14.43;7.25;;;21.20;99.90;;;;;;7346026;19;107254;-70
2022/07/21 11:01:24;;;;;;;9.00;6.20;;;21.20;99.90;;;;;;7346953;19;108549;-71
2022/07/21 11:04:16;;;;;;;8.50;5.55;;;21.20;99.90;;;;;;7346375;19;112212;-70
2022/07/21 11:06:44;;;;;;;11.95;6.50;;;21.20;99.90;;;;;;7350551;19;107482;-70
2022/07/21 11:09:17;;;;;;;8.90;6.13;;;21.10;99.90;;;;;;7344299;19;109016;-71
2022/07/21 11:11:47;;;;;;;11.52;5.82;;;21.10;99.90;;;;;;7345917;19;108061;-71
2022/07/21 11:14:18;;;;;;;8.65;6.00;;;21.10;99.90;;;;;;7341542;19;107967;-71
2022/07/21 11:16:56;;;;;;;10.68;5.20;;;21.10;99.90;;;;;;7341506;19;108030;-71
2022/07/21 11:19:42;;;;;;;11.05;5.88;;;21.10;99.90;;;;;;7341578;19;107578;-71
2022/07/21 11:22:11;;;;;;;13.40;5.38;;;21.00;99.90;;;;;;7343420;19;107143;-71
2022/07/21 11:24:47;;;;;;;8.52;4.93;;;21.00;99.90;;;;;;7343495;19;112246;-71
2022/07/21 11:27:20;;;;;;;5.90;4.93;;;21.00;99.90;;;;;;7345578;19;107535;-71
2022/07/21 11:29:52;;;;;;;5.40;3.97;;;20.90;99.90;;;;;;7348556;19;108135;-71
2022/07/21 11:32:19;;;;;;;5.22;4.53;;;20.90;99.90;;;;;;7343996;19;108206;-71
2022/07/21 11:34:49;;;;;;;6.47;4.35;;;20.90;99.90;;;;;;7344392;19;108581;-71
2022/07/21 11:37:19;;;;;;;10.25;5.00;;;20.90;99.90;;;;;;7342938;19;108978;-71
2022/07/21 11:40:16;;;;;;;8.80;5.00;;;20.90;99.90;;;;;;7342210;19;107390;-71
2022/07/21 11:42:46;;;;;;;7.55;4.88;;;20.90;99.90;;;;;;7344618;19;108363;-71
2022/07/21 11:45:14;;;;;;;9.60;5.53;;;20.90;99.90;;;;;;7344376;19;108087;-71
2022/07/21 11:47:41;;;;;;;6.78;4.90;;;20.90;99.90;;;;;;7342630;19;107943;-71
2022/07/21 11:50:17;;;;;;;11.05;5.60;;;20.90;99.90;;;;;;7342281;19;107552;-71
2022/07/21 11:52:45;;;;;;;8.48;5.13;;;20.80;99.90;;;;;;7346944;19;109007;-71
2022/07/21 11:55:12;;;;;;;8.45;5.32;;;20.80;99.90;;;;;;7342056;19;107202;-71
2022/07/21 11:57:44;;;;;;;6.88;5.15;;;20.80;99.90;;;;;;7341768;19;108357;-71
2022/07/21 12:00:11;;;;;;;6.85;4.70;;;20.80;99.90;;;;;;7343561;19;108571;-71
2022/07/21 12:02:39;;;;;;;6.95;4.82;;;20.80;99.90;;;;;;7344578;19;107095;-71
2022/07/21 12:05:08;;;;;;;8.35;5.82;;;20.80;99.90;;;;;;7343900;19;108148;-71
2022/07/21 12:07:41;;;;;;;10.65;6.78;;;20.80;99.90;;;;;;7339874;19;111101;-71
2022/07/21 12:10:22;;;;;;;9.98;5.57;;;20.80;99.90;;;;;;7340889;19;108414;-71
2022/07/21 12:12:50;;;;;;;10.52;5.90;;;20.80;99.90;;;;;;7339235;19;107855;-71
2022/07/21 12:15:20;;;;;;;6.45;5.80;;;20.80;99.90;;;;;;7345079;19;107481;-71
2022/07/21 12:17:48;;;;;;;12.23;6.63;;;20.80;99.90;;;;;;7342663;19;108911;-71
2022/07/21 12:20:26;;;;;;;8.30;6.38;;;20.80;99.90;;;;;;7340794;19;107051;-71
2022/07/21 12:22:55;;;;;;;8.85;5.20;;;20.90;99.90;;;;;;7340077;19;110718;-71
2022/07/21 12:25:37;;;;;;;6.72;5.53;;;20.90;99.90;;;;;;7340503;19;108080;-71
2022/07/21 12:28:05;;;;;;;8.70;5.35;;;20.90;99.90;;;;;;7341172;19;107582;-71
2022/07/21 12:30:34;;;;;;;8.60;5.15;;;20.90;99.90;;;;;;7342874;19;107106;-71
2022/07/21 12:33:28;;;;;;;10.70;5.25;;;20.80;99.90;;;;;;7340396;19;108866;-71
2022/07/21 12:36:07;;;;;;;9.15;5.43;;;20.80;99.90;;;;;;7345954;19;107843;-71
2022/07/21 12:38:40;;;;;;;15.80;7.20;;;20.80;99.90;;;;;;7341614;19;108907;-71
2022/07/21 12:41:09;;;;;;;8.65;5.60;;;20.70;99.90;;;;;;7339282;19;107632;-71